Azalea, OR

9:24 AM PDT on September 05, 2015 (GMT -0700)
Alder Creek Community Forest | | Change Station
CLOSE
Current Station
Personal Weather Station
Location: Riddle, OR
Elevation: 1004 ft
Nearby Weather Stations

Elev 1004 ft 42.92 °N, 123.30 °W | Updated 22 seconds ago

Partly Cloudy
Partly Cloudy
51.4 °F
Feels Like 51.4 °F
N
0.0
Wind Variable Wind from SW
Gusts 0.0 mph

Today
High -- | Low -- °F
--% Chance of Precip.
Yesterday
High -- | Low -- °F
Precip. -- in
6:41 AM 7:40 PM
Waning Gibbous, 47% visible
Pressure 30.20 in
Visibility 10.0 miles
Clouds Overcast 400 ft
Dew Point 48 °F
Humidity 89%
Rainfall 0.00 in
Snow Depth Not available.
UV 2.0 out of 12
Pollen 4.80 out of 12
Air Quality Not available.
Flu Activity Not available.
METAR KRBG 051553Z AUTO 00000KT 10SM OVC004 10/08 A3020 RMK AO2 SLP227 T01000083
Pressure 30.20 in
Visibility 10.0 miles
Clouds Overcast 400 ft
Dew Point 48 °F
Humidity 89%
Rainfall 0.00 in
Snow Depth Not available.
UV 2.0 out of 12
Pollen 4.80 out of 12
Air Quality Not available.
Flu Activity Not available.
METAR KRBG 051553Z AUTO 00000KT 10SM OVC004 10/08 A3020 RMK AO2 SLP227 T01000083

10-Day Weather Forecast

×

Almanac

Astronomy

Sep. 05, 2015 Rise Set
Actual Time
Civil Twilight
Nautical Twilight
Astronomical Twilight
Moon
Length of Visible Light
Length of Day
Tomorrow will be .
, % of the Moon is Illuminated

Today's Extremes

State Highs State Lows

Community

WunderPhotos

Upload Photos

1,852,495 photos uploaded!

WunderBlogs® & News

Nearby

Air Quality

  Air Quality AQ Index Pollutant
Not available.

Snow Depth

Station Depth Elevation

Earthquake Activity

City Distance Mag. Time & Date
Minimum magnitude displayed is 2.5.

Coastal Water Temperatures

Place Temperature

Stations

Nearby Weather Stations

Station Location Temp. Windchill Dew Point Humidity Wind Precip. Elev Updated Type